Connexion S'enregistrer

Connexion à votre compte

Identifiant
Mot de passe
Maintenir la connexion active sur ce site

Créer un compte

Pour valider ce formulaire, vous devez remplir tous les champs.
Nom
Identifiant
Mot de passe
Répétez le mot de passe
Adresse e-mail
Répétez l'adresse e-mail

Nous contacter

 Téléphone : +33 (0)4 79 54 41 81

Coordonnées détaillées et accès : cliquez ici

 
LFLB °C
    Ferienhaus Ostsee
[source: ADDS]
METAR
LFLB 282300Z AUTO VRB03KT 9999 FEW043/// BKN072/// OVC090/// ///TCU 13/11 Q1022 =
TAF LFLB 281400Z 2815/2915 18010KT 9999 BKN060 PROB40 TEMPO 2815/2819 SHRA SCT040TCU TEMPO 2901/2906 5000 -RA BECMG 2908/2910 36005KT
TAF
TAF LFLB 281400Z 2815/2915 18010KT 9999 BKN060 PROB40 TEMPO 2815/2819 SHRA SCT040TCU TEMPO 2901/2906 5000 -RA BECMG 2908/2910 36005KT =
SR / SS: 06:12 / 16:27 UTC (Lever/Coucher du soleil le 2020-10-29)
JSN Boot template designed by JoomlaShine.com